Down Up Stop Top

TXC259
There are no active watches, warnings or advisories

Record high temperature 111.6°F Record low temperature 13.3°F Record high gust 49.5 mph Record high average 32.4 mph Record daily rain 4.23 in. Record low windchill 4.3°F Record high barometer 30.637 in. Record low barometer 28.496 in.
Daily high pressure 29.958 in. Daily low pressure 29.751 in. Daily low windchill 64.2°F Daily high heat index 93.8°F Daily high gust speed 17.5 mph SE Daily high average speed 12.3 mph SSE
Welfare-Texas Weather
LAST READING AT TIME: 23:00 DATE: April 24 2014, time of next update: 23:05
Current WeatherNight time/Dry Current Temperature 64.9°F (18.3°C) (Heat Index 64.9°F ), Apparent temp 61.7°F
Maximum Temperature (since midnight)99.5°F at: 15:48 Minimum Temperature (since midnight)64.2°F at: 05:21
Average windspeed (ten minute)0.9 mph Wind Direction (ten minute)ESE (112°)
Heat Index 64.9°F Maximum Gust (last hour)0.9 mph at: 22:00
Maximum Gust (since midnight)17.5 mph at: 00:07 Maximum 1 minute average (since midnight)12.3 mph at: 00:08
Rainfall (last hour)0.00 in. (0.0 mm) Rainfall (since midnight)0.00 in. (0.0 mm) ---
Rainfall This month 0.41 in. (10.5 mm) Rainfall To date this year 1.34 in. (34.1 mm)
Maximum rain per minute (last hour)0.00 in/min Maximum rain per hour (last 6 hours)0.00 in/hour
Yesterdays rainfall 0.00 in DewPoint 7.0°F (Wet Bulb :45.9°F )
Humidity 10 %, Humidex 57.0°F Barometer corrected to msl29.929 in. (1013.5 hPa)
Pressure change 0.00 in. (last hour) Trend (last hour)STEADY
Pressure change (last 12 hours)+0.03 in Pressure change (last 6 hours)+0.12 in

This page is updated from recent data collected by a WMR200 weather station Use the Reload or Refresh facility on your browser to retrieve the latest data.


Click here for the last 24 hour graph
Click here for the last 48 hour graph
Click here for the last 72 hour graph
Click here for the month to date graph


Weather report/warning/Metars

SAN ANTONIO INTERNATIONAL  AIRPORT , TX, United States (KSAT) 29-32N 098-28W 243M
Apr 24, 2014 - 10:51 PM EDT / 2014.04.25 0251 UTC
Wind: from the NE (050 degrees) at 3 MPH (3 KT):0
Visibility: 10 mile(s):0
Sky conditions: clear
Temperature: 78.1 F (25.6 C)
Dew Point: 64.0 F (17.8 C)
Relative Humidity: 62%
Pressure (altimeter): 29.9 in. Hg (1012 hPa)
Pressure tendency: 0.08 inches (2.6 hPa) higher than three hours ago
ob: KSAT 250251Z 05003KT 10SM CLR 26/18 A2990 RMK AO2 SLP108 T02560178 53026
cycle: 3
NEW BRAUNFELS MUNICIPAL AIRPORT, TX, United States (KBAZ) 29-43N 98-03W 195M
Apr 24, 2014 - 10:51 PM EDT / 2014.04.25 0251 UTC
Wind: Calm:0
Visibility: 10 mile(s):0
Sky conditions: clear
Temperature: 73.0 F (22.8 C)
Dew Point: 61.0 F (16.1 C)
Relative Humidity: 65%
Pressure (altimeter): 29.88 in. Hg (1011 hPa)
Pressure tendency: 0.08 inches (2.6 hPa) higher than three hours ago
ob: KBAZ 250251Z AUTO 00000KT 10SM CLR 23/16 A2988 RMK AO2 SLP112 T02280161 53026
cycle: 3
Kerrville, Kerrville Municipal Airport/Louis Schreiner Field, TX, United States (KERV) 29-58N 099-05W
Apr 24, 2014 - 11:35 PM EDT / 2014.04.25 0335 UTC
Wind: Calm:0
Visibility: 10 mile(s):0
Sky conditions: clear
Temperature: 64.9 F (18.3 C)
Dew Point: 37.8 F (3.2 C)
Relative Humidity: 36%
Pressure (altimeter): 29.97 in. Hg (1014 hPa)
ob: KERV 250335Z AUTO 00000KT 10SM CLR 18/03 A2997 RMK AO2 T01830032
cycle: 3
BANGOR INT'L AIRPORT, ME, United States (KBGR) 44-48N 068-49W 57M
Apr 24, 2014 - 10:53 PM EDT / 2014.04.25 0253 UTC
Wind: from the NNW (340 degrees) at 8 MPH (7 KT):0
Visibility: 10 mile(s):0
Sky conditions: overcast
Temperature: 37.9 F (3.3 C)
Dew Point: 34.0 F (1.1 C)
Relative Humidity: 85%
Pressure (altimeter): 29.84 in. Hg (1010 hPa)
Pressure tendency: 0.04 inches (1.4 hPa) higher than three hours ago
ob: KBGR 250253Z 34007KT 10SM FEW026 OVC050 03/01 A2984 RMK AO2 SLP106 60000 T00330011 51014
cycle: 3



The data is logged at two minute intervals, but there is data recorded every minute.

Use the RELOAD facility on your browser to retrieve the latest data.

Click here for a daily update of the averages/extremes to date for the month


Created by "Weather Display" software version 10.37R Build 23 at this start time/date 14:23 9/20/2013